createdAt,value
2022-08-23T00:00:13.061Z,59.40551758
2022-08-23T00:01:10.378Z,59.30786133
2022-08-23T00:02:23.191Z,59.40551758
2022-08-23T00:03:41.419Z,59.70458984
2022-08-23T00:05:12.898Z,60.00976563
2022-08-23T00:06:13.285Z,60.20507813
2022-08-23T00:07:13.725Z,60.63842773
2022-08-23T00:08:14.128Z,60.43701172
2022-08-23T00:09:14.535Z,60.43701172
2022-08-23T00:10:14.956Z,60.63842773
2022-08-23T00:11:15.354Z,60.73608398
2022-08-23T00:12:15.742Z,60.2355957
2022-08-23T00:13:16.146Z,60.2355957
2022-08-23T00:14:16.604Z,60.2355957
2022-08-23T00:15:17.861Z,60.43701172
2022-08-23T00:16:18.245Z,60.43701172
2022-08-23T00:17:33.755Z,60.53466797
2022-08-23T00:18:19.160Z,60.13793945
2022-08-23T00:19:19.567Z,59.73510742
2022-08-23T00:20:20.025Z,59.83276367
2022-08-23T00:21:20.469Z,60.03417969
2022-08-23T00:22:20.889Z,60.43701172
2022-08-23T00:23:21.857Z,60.43701172
2022-08-23T00:24:22.273Z,60.33325195
2022-08-23T00:25:23.363Z,60.53466797
2022-08-23T00:26:23.755Z,60.13793945
2022-08-23T00:27:24.180Z,59.83276367
2022-08-23T00:28:24.617Z,59.73510742
2022-08-23T00:29:25.015Z,59.93652344
2022-08-23T00:30:25.469Z,60.03417969
2022-08-23T00:31:25.904Z,60.26611328
2022-08-23T00:32:26.346Z,60.56518555
2022-08-23T00:33:26.756Z,60.56518555
2022-08-23T00:34:27.183Z,60.56518555
2022-08-23T00:35:28.350Z,60.96801758
2022-08-23T00:36:28.758Z,60.96801758
2022-08-23T00:37:29.838Z,61.16943359
2022-08-23T00:38:34.844Z,60.96801758
2022-08-23T00:39:30.687Z,60.96801758
2022-08-23T00:40:31.151Z,61.16943359
2022-08-23T00:41:31.522Z,61.36474609
2022-08-23T00:42:32.118Z,61.26708984
2022-08-23T00:43:32.384Z,61.06567383
2022-08-23T00:44:32.811Z,60.86425781
2022-08-23T00:45:33.233Z,60.76660156
2022-08-23T00:46:33.644Z,60.6628418
2022-08-23T00:47:34.067Z,60.56518555
2022-08-23T00:48:34.486Z,60.6628418
2022-08-23T00:49:34.899Z,60.76660156
2022-08-23T00:50:35.399Z,60.76660156
2022-08-23T00:51:43.124Z,60.86425781
2022-08-23T00:52:36.791Z,60.6628418
2022-08-23T00:53:37.204Z,60.86425781
2022-08-23T00:54:37.630Z,60.96801758
2022-08-23T00:56:09.599Z,60.6628418
2022-08-23T00:57:09.993Z,60.76660156
2022-08-23T00:58:10.389Z,60.96801758
2022-08-23T00:59:11.558Z,60.79711914
2022-08-23T01:00:11.950Z,60.86425781
2022-08-23T01:01:12.414Z,60.99853516
2022-08-23T01:02:12.866Z,60.99853516
2022-08-23T01:03:13.215Z,61.39526367
2022-08-23T01:04:13.621Z,61.19384766
2022-08-23T01:05:14.080Z,60.96801758
2022-08-23T01:06:15.079Z,60.96801758
2022-08-23T01:07:15.483Z,61.39526367
2022-08-23T01:08:15.899Z,61.19384766
2022-08-23T01:09:16.304Z,61.19384766
2022-08-23T01:10:18.153Z,61.19384766
2022-08-23T01:11:17.196Z,61.29760742
2022-08-23T01:12:19.101Z,61.09619141
2022-08-23T01:13:18.008Z,60.69335938
2022-08-23T01:14:18.428Z,61.19384766
2022-08-23T01:15:18.839Z,61.70043945
2022-08-23T01:16:20.078Z,61.70043945
2022-08-23T01:17:20.474Z,61.29760742
2022-08-23T01:18:20.872Z,61.09619141
2022-08-23T01:19:21.314Z,61.09619141
2022-08-23T01:20:22.354Z,61.09619141
2022-08-23T01:21:22.793Z,60.99853516
2022-08-23T01:22:23.194Z,61.09619141
2022-08-23T01:23:23.605Z,61.19384766
2022-08-23T01:24:41.172Z,61.09619141
2022-08-23T01:25:25.845Z,61.09619141
2022-08-23T01:26:26.260Z,61.19384766
2022-08-23T01:27:26.679Z,61.19384766
2022-08-23T01:28:27.094Z,61.42578125
2022-08-23T01:29:27.507Z,61.5234375
2022-08-23T01:30:27.914Z,61.72485352
2022-08-23T01:31:28.381Z,61.29760742
2022-08-23T01:32:28.793Z,61.19384766
2022-08-23T01:33:29.212Z,61.09619141
2022-08-23T01:34:29.625Z,61.29760742
2022-08-23T01:35:30.850Z,61.59667969
2022-08-23T01:36:31.299Z,61.39526367
2022-08-23T01:37:31.682Z,61.09619141
2022-08-23T01:38:32.750Z,61.09619141
2022-08-23T01:39:32.505Z,61.19384766
2022-08-23T01:40:32.936Z,61.29760742
2022-08-23T01:41:34.075Z,61.19384766
2022-08-23T01:42:34.458Z,60.59570313
2022-08-23T01:43:34.876Z,60.49194336
2022-08-23T01:44:35.303Z,60.49194336
2022-08-23T01:45:36.347Z,60.49194336
2022-08-23T01:46:36.805Z,60.29052734
2022-08-23T01:47:37.628Z,60.62011719
2022-08-23T01:49:08.602Z,60.92529297
2022-08-23T01:50:08.714Z,61.12670898
2022-08-23T01:51:10.079Z,60.72387695
2022-08-23T01:52:10.477Z,60.72387695
2022-08-23T01:53:10.907Z,60.8215332
2022-08-23T01:54:11.484Z,61.12670898
2022-08-23T01:55:11.931Z,61.328125
2022-08-23T01:56:12.383Z,61.02294922
2022-08-23T01:57:13.612Z,61.12670898
2022-08-23T01:58:14.010Z,60.8215332
2022-08-23T01:59:14.429Z,60.92529297
2022-08-23T02:00:14.840Z,60.8215332
2022-08-23T02:01:15.305Z,60.92529297
2022-08-23T02:02:15.711Z,60.92529297
2022-08-23T02:03:16.103Z,60.92529297
2022-08-23T02:04:16.521Z,60.92529297
2022-08-23T02:05:18.882Z,60.92529297
2022-08-23T02:06:18.072Z,60.92529297
2022-08-23T02:07:18.530Z,61.02294922
2022-08-23T02:08:18.934Z,61.12670898
2022-08-23T02:09:19.351Z,60.92529297
2022-08-23T02:10:19.853Z,61.12670898
2022-08-23T02:11:20.260Z,61.22436523
2022-08-23T02:12:20.724Z,61.328125
2022-08-23T02:13:21.462Z,61.22436523
2022-08-23T02:14:21.548Z,61.42578125
2022-08-23T02:15:21.979Z,61.5234375
2022-08-23T02:16:23.059Z,61.42578125
2022-08-23T02:17:23.479Z,61.42578125
2022-08-23T02:18:23.891Z,61.22436523
2022-08-23T02:19:24.331Z,61.22436523
2022-08-23T02:20:25.362Z,61.55395508
2022-08-23T02:21:25.777Z,61.55395508
2022-08-23T02:22:26.261Z,61.35253906
2022-08-23T02:23:26.725Z,61.55395508
2022-08-23T02:24:28.123Z,61.65771484
2022-08-23T02:25:28.578Z,61.85913086
2022-08-23T02:26:31.123Z,62.15820313
2022-08-23T02:27:30.305Z,61.65771484
2022-08-23T02:28:30.778Z,61.65771484
2022-08-23T02:29:31.237Z,61.45629883
2022-08-23T02:30:31.664Z,61.25488281
2022-08-23T02:31:32.086Z,61.22436523
2022-08-23T02:32:32.571Z,61.12670898
2022-08-23T02:33:33.638Z,60.92529297
2022-08-23T02:34:34.137Z,61.02294922
2022-08-23T02:35:34.574Z,61.22436523
2022-08-23T02:36:35.593Z,61.42578125
2022-08-23T02:37:36.043Z,61.328125
2022-08-23T02:38:36.458Z,61.42578125
2022-08-23T02:40:07.926Z,61.45629883
2022-08-23T02:41:08.272Z,61.65771484
2022-08-23T02:42:08.692Z,61.55395508
2022-08-23T02:43:09.145Z,61.55395508
2022-08-23T02:44:09.607Z,61.75537109
2022-08-23T02:45:10.057Z,61.65771484
2022-08-23T02:46:11.532Z,61.95678711
2022-08-23T02:47:11.991Z,62.06054688
2022-08-23T02:48:12.568Z,61.95678711
2022-08-23T02:49:12.880Z,61.65771484
2022-08-23T02:50:13.356Z,61.45629883
2022-08-23T02:51:14.598Z,61.328125
2022-08-23T02:52:15.012Z,61.12670898
2022-08-23T02:53:15.458Z,61.12670898
2022-08-23T02:54:16.440Z,61.22436523
2022-08-23T02:55:16.880Z,61.25488281
2022-08-23T02:56:21.814Z,61.35253906
2022-08-23T02:57:18.285Z,61.22436523
2022-08-23T02:58:18.746Z,61.35253906
2022-08-23T02:59:19.360Z,61.45629883
2022-08-23T03:00:19.663Z,61.45629883
2022-08-23T03:01:20.133Z,61.35253906
2022-08-23T03:02:20.691Z,61.45629883
2022-08-23T03:03:22.538Z,61.35253906
2022-08-23T03:04:21.583Z,61.35253906
2022-08-23T03:05:22.054Z,61.55395508
2022-08-23T03:06:24.545Z,61.35253906
2022-08-23T03:07:23.814Z,61.25488281
2022-08-23T03:08:24.285Z,61.25488281
2022-08-23T03:09:24.741Z,61.12670898
2022-08-23T03:10:25.173Z,61.02294922
2022-08-23T03:11:25.649Z,61.25488281
2022-08-23T03:12:26.062Z,61.25488281
2022-08-23T03:13:26.526Z,61.15112305
2022-08-23T03:14:27.044Z,61.45629883
2022-08-23T03:15:27.368Z,61.55395508
2022-08-23T03:16:28.397Z,61.55395508
2022-08-23T03:17:28.885Z,61.98730469
2022-08-23T03:18:29.336Z,61.98730469
2022-08-23T03:19:29.714Z,62.28637695
2022-08-23T03:20:30.201Z,62.1887207
2022-08-23T03:21:30.712Z,62.1887207
2022-08-23T03:22:31.899Z,62.08496094
2022-08-23T03:23:32.338Z,62.1887207
2022-08-23T03:24:32.769Z,62.39013672
2022-08-23T03:25:33.337Z,62.48779297
2022-08-23T03:26:34.618Z,62.59155273
2022-08-23T03:27:38.300Z,62.59155273
2022-08-23T03:29:06.690Z,62.39013672
2022-08-23T03:30:07.113Z,62.28637695
2022-08-23T03:31:07.599Z,62.1887207
2022-08-23T03:32:08.046Z,62.08496094
2022-08-23T03:33:08.456Z,62.28637695
2022-08-23T03:34:08.898Z,62.28637695
2022-08-23T03:35:15.351Z,62.39013672
2022-08-23T03:36:09.780Z,62.48779297
2022-08-23T03:37:11.440Z,62.48779297
2022-08-23T03:38:11.831Z,62.68920898
2022-08-23T03:39:12.297Z,62.79296875
2022-08-23T03:40:12.757Z,62.68920898
2022-08-23T03:41:13.181Z,62.890625
2022-08-23T03:42:13.615Z,62.99438477
2022-08-23T03:43:14.021Z,62.79296875
2022-08-23T03:44:14.491Z,62.92114258
2022-08-23T03:45:14.889Z,62.890625
2022-08-23T03:46:16.382Z,62.79296875
2022-08-23T03:47:16.819Z,62.68920898
2022-08-23T03:48:17.328Z,62.68920898
2022-08-23T03:49:17.779Z,62.48779297
2022-08-23T03:50:18.161Z,62.39013672
2022-08-23T03:51:19.149Z,62.48779297
2022-08-23T03:52:19.630Z,62.39013672
2022-08-23T03:53:20.058Z,62.59155273
2022-08-23T03:54:20.610Z,62.68920898
2022-08-23T03:55:21.882Z,62.79296875
2022-08-23T03:56:22.914Z,62.79296875
2022-08-23T03:57:23.379Z,62.81738281
2022-08-23T03:58:23.888Z,63.01879883
2022-08-23T03:59:24.325Z,62.92114258
2022-08-23T04:00:24.695Z,62.81738281
2022-08-23T04:01:28.759Z,62.71972656
2022-08-23T04:02:25.618Z,62.81738281
2022-08-23T04:03:26.050Z,62.81738281
2022-08-23T04:04:26.500Z,62.81738281
2022-08-23T04:05:26.909Z,62.62207031
2022-08-23T04:06:27.919Z,62.4206543
2022-08-23T04:07:28.362Z,62.4206543
2022-08-23T04:08:33.438Z,62.4206543
2022-08-23T04:09:29.298Z,62.51831055
2022-08-23T04:10:29.698Z,62.92114258
2022-08-23T04:11:30.151Z,63.15307617
2022-08-23T04:12:30.628Z,63.25073242
2022-08-23T04:13:31.097Z,63.12255859
2022-08-23T04:14:31.549Z,63.12255859
2022-08-23T04:15:31.939Z,63.12255859
2022-08-23T04:16:32.902Z,62.92114258
2022-08-23T04:17:33.391Z,63.01879883
2022-08-23T04:18:33.832Z,63.15307617
2022-08-23T04:19:34.299Z,63.01879883
2022-08-23T04:20:34.668Z,63.04931641
2022-08-23T04:21:36.399Z,63.01879883
2022-08-23T04:23:07.123Z,62.71972656
2022-08-23T04:24:07.574Z,62.62207031
2022-08-23T04:25:26.750Z,62.62207031
2022-08-23T04:26:09.761Z,62.81738281
2022-08-23T04:27:09.649Z,63.01879883
2022-08-23T04:28:10.104Z,62.92114258
2022-08-23T04:29:10.545Z,62.62207031
2022-08-23T04:30:11.094Z,62.4206543
2022-08-23T04:31:11.517Z,62.51831055
2022-08-23T04:32:12.110Z,62.4206543
2022-08-23T04:33:15.126Z,62.4206543
2022-08-23T04:34:13.007Z,62.4206543
2022-08-23T04:35:13.450Z,62.4206543
2022-08-23T04:36:13.837Z,62.51831055
2022-08-23T04:37:15.115Z,62.81738281
2022-08-23T04:38:24.210Z,62.81738281
2022-08-23T04:39:16.096Z,62.62207031
2022-08-23T04:40:16.634Z,62.4206543
2022-08-23T04:41:16.974Z,62.31689453
2022-08-23T04:42:17.396Z,62.4206543
2022-08-23T04:43:17.889Z,62.62207031
2022-08-23T04:44:18.383Z,62.62207031
2022-08-23T04:45:18.980Z,62.71972656
2022-08-23T04:46:19.258Z,62.4206543
2022-08-23T04:47:20.614Z,62.64648438
2022-08-23T04:48:21.057Z,62.62207031
2022-08-23T04:49:21.626Z,62.81738281
2022-08-23T04:50:22.114Z,62.75024414
2022-08-23T04:51:22.475Z,62.84790039
2022-08-23T04:52:22.893Z,62.95166016
2022-08-23T04:53:23.397Z,62.95166016
2022-08-23T04:54:23.895Z,62.95166016
2022-08-23T04:55:24.343Z,63.25073242
2022-08-23T04:56:24.822Z,63.35449219
2022-08-23T04:57:26.103Z,63.65356445
2022-08-23T04:58:26.578Z,63.35449219
2022-08-23T04:59:27.021Z,63.35449219
2022-08-23T05:00:27.772Z,63.5559082
2022-08-23T05:01:28.020Z,63.35449219
2022-08-23T05:02:28.384Z,63.5559082
2022-08-23T05:03:28.901Z,63.95874023
2022-08-23T05:04:29.356Z,64.2578125
2022-08-23T05:05:29.856Z,64.66064453
2022-08-23T05:06:30.249Z,64.36157227
2022-08-23T05:07:41.685Z,64.05639648
2022-08-23T05:08:32.160Z,64.75830078
2022-08-23T05:09:32.607Z,65.26489258
2022-08-23T05:10:33.106Z,65.73486328
2022-08-23T05:11:33.515Z,65.43579102
2022-08-23T05:12:33.994Z,65.13061523
2022-08-23T05:13:34.757Z,64.63012695
2022-08-23T05:15:05.362Z,63.89770508
2022-08-23T05:16:05.828Z,63.49487305
2022-08-23T05:17:06.893Z,63.79394531
2022-08-23T05:18:07.321Z,64.09912109
2022-08-23T05:19:07.849Z,63.89770508
2022-08-23T05:20:08.321Z,63.79394531
2022-08-23T05:21:08.782Z,63.99536133
2022-08-23T05:22:10.146Z,63.49487305
2022-08-23T05:23:10.587Z,62.96386719
2022-08-23T05:24:13.624Z,62.76245117
2022-08-23T05:25:11.806Z,62.35961914
2022-08-23T05:26:13.232Z,61.75537109
2022-08-23T05:27:14.396Z,61.35253906
2022-08-23T05:28:14.817Z,61.65771484
2022-08-23T05:29:15.290Z,61.55395508
2022-08-23T05:30:15.744Z,61.55395508
2022-08-23T05:31:16.509Z,61.55395508
2022-08-23T05:32:16.652Z,61.55395508
2022-08-23T05:33:17.077Z,62.35961914
2022-08-23T05:34:17.561Z,62.86010742
2022-08-23T05:35:18.026Z,62.56103516
2022-08-23T05:36:18.491Z,61.75537109
2022-08-23T05:37:19.909Z,61.65771484
2022-08-23T05:38:20.875Z,61.55395508
2022-08-23T05:39:32.886Z,61.65771484
2022-08-23T05:40:21.329Z,62.06054688
2022-08-23T05:41:21.776Z,62.25585938
2022-08-23T05:42:22.206Z,62.06054688
2022-08-23T05:43:22.668Z,61.85913086
2022-08-23T05:44:23.150Z,61.65771484
2022-08-23T05:45:23.582Z,61.85913086
2022-08-23T05:46:28.363Z,61.65771484
2022-08-23T05:47:25.411Z,61.95678711
2022-08-23T05:48:25.870Z,61.65771484
2022-08-23T05:49:26.374Z,61.75537109
2022-08-23T05:50:26.830Z,61.55395508
2022-08-23T05:51:27.316Z,61.55395508
2022-08-23T05:52:27.719Z,61.35253906
2022-08-23T05:53:28.137Z,61.25488281
2022-08-23T05:54:28.633Z,61.55395508
2022-08-23T05:55:35.058Z,61.65771484
2022-08-23T05:56:30.135Z,61.45629883
2022-08-23T05:57:31.118Z,61.55395508
2022-08-23T05:58:31.541Z,61.15112305
2022-08-23T05:59:31.979Z,60.95581055
2022-08-23T06:00:38.101Z,60.55297852
2022-08-23T06:01:33.573Z,60.55297852
2022-08-23T06:02:34.294Z,60.95581055
2022-08-23T06:04:04.968Z,60.85205078
2022-08-23T06:05:05.455Z,61.0534668
2022-08-23T06:06:05.912Z,61.15112305
2022-08-23T06:07:06.924Z,61.35253906
2022-08-23T06:08:07.330Z,61.35253906
2022-08-23T06:09:07.757Z,61.55395508
2022-08-23T06:10:08.272Z,61.25488281
2022-08-23T06:11:08.759Z,61.15112305
2022-08-23T06:12:09.249Z,60.55297852
2022-08-23T06:13:09.645Z,60.75439453
2022-08-23T06:14:10.107Z,60.65063477
2022-08-23T06:15:10.556Z,60.75439453
2022-08-23T06:16:14.384Z,60.75439453
2022-08-23T06:17:12.444Z,60.65063477
2022-08-23T06:18:12.899Z,60.75439453
2022-08-23T06:19:13.345Z,61.15112305
2022-08-23T06:20:13.845Z,61.15112305
2022-08-23T06:21:14.297Z,61.15112305
2022-08-23T06:22:15.657Z,61.0534668
2022-08-23T06:23:16.100Z,61.35253906
2022-08-23T06:24:16.514Z,61.25488281
2022-08-23T06:25:16.921Z,60.85205078
2022-08-23T06:26:17.456Z,61.0534668
2022-08-23T06:27:18.689Z,61.0534668
2022-08-23T06:28:19.656Z,61.15112305
2022-08-23T06:29:20.248Z,61.0534668
2022-08-23T06:30:20.548Z,61.15112305
2022-08-23T06:31:21.116Z,61.12670898
2022-08-23T06:32:21.544Z,61.12670898
2022-08-23T06:33:21.970Z,61.22436523
2022-08-23T06:34:22.404Z,61.22436523
2022-08-23T06:35:38.439Z,61.22436523
2022-08-23T06:36:23.361Z,61.42578125
2022-08-23T06:37:24.443Z,61.42578125
2022-08-23T06:38:24.873Z,61.5234375
2022-08-23T06:39:25.304Z,61.42578125
2022-08-23T06:40:25.802Z,60.92529297
2022-08-23T06:41:26.211Z,61.09619141
2022-08-23T06:42:38.238Z,60.89477539
2022-08-23T06:43:27.147Z,60.99853516
2022-08-23T06:44:27.569Z,61.29760742
2022-08-23T06:45:33.965Z,61.29760742
2022-08-23T06:46:29.344Z,61.49902344
2022-08-23T06:47:29.096Z,60.89477539
2022-08-23T06:48:29.497Z,60.69335938
2022-08-23T06:49:29.939Z,60.39428711
2022-08-23T06:50:32.106Z,60.26611328
2022-08-23T06:51:31.422Z,60.36376953
2022-08-23T06:52:31.909Z,59.9609375
2022-08-23T06:53:32.331Z,59.66186523
2022-08-23T06:54:32.830Z,59.765625
2022-08-23T06:55:33.708Z,59.99145508
2022-08-23T06:57:05.185Z,60.16235352
2022-08-23T06:58:05.772Z,60.86425781
2022-08-23T06:59:06.096Z,61.06567383
2022-08-23T07:00:06.521Z,60.76660156
2022-08-23T07:01:08.283Z,60.86425781
2022-08-23T07:02:07.580Z,60.76660156
2022-08-23T07:03:07.968Z,60.86425781
2022-08-23T07:04:08.351Z,60.96801758
2022-08-23T07:05:08.795Z,61.06567383
2022-08-23T07:06:09.252Z,60.6628418
2022-08-23T07:07:11.568Z,60.86425781
2022-08-23T07:08:11.482Z,60.96801758
2022-08-23T07:09:11.932Z,60.53466797
2022-08-23T07:10:12.383Z,60.53466797
2022-08-23T07:11:12.796Z,60.53466797
2022-08-23T07:12:13.282Z,60.2355957
2022-08-23T07:13:18.035Z,60.73608398
2022-08-23T07:14:14.185Z,60.9375
2022-08-23T07:15:15.172Z,61.03515625
2022-08-23T07:16:15.680Z,60.9375
2022-08-23T07:17:16.089Z,60.73608398
2022-08-23T07:18:17.452Z,60.90698242
2022-08-23T07:19:17.847Z,60.90698242
2022-08-23T07:20:18.341Z,60.70556641
2022-08-23T07:21:18.754Z,60.80932617
2022-08-23T07:22:19.239Z,60.90698242
2022-08-23T07:23:19.721Z,60.60791016
2022-08-23T07:24:20.153Z,60.30883789
2022-08-23T07:25:21.418Z,60.20507813
2022-08-23T07:26:21.835Z,60.68115234
2022-08-23T07:27:23.247Z,60.57739258
2022-08-23T07:28:24.710Z,60.27832031
2022-08-23T07:29:25.098Z,60.27832031
2022-08-23T07:30:25.571Z,60.18066406
2022-08-23T07:31:26.077Z,60.18066406
2022-08-23T07:32:27.457Z,60.18066406
2022-08-23T07:33:27.969Z,60.27832031
2022-08-23T07:34:28.391Z,60.27832031
2022-08-23T07:35:29.681Z,60.68115234
2022-08-23T07:36:30.119Z,60.47973633
2022-08-23T07:37:30.669Z,60.57739258
2022-08-23T07:38:31.738Z,60.37597656
2022-08-23T07:39:32.102Z,60.27832031
2022-08-23T07:40:35.582Z,61.0534668
2022-08-23T07:42:06.973Z,60.94970703
2022-08-23T07:43:03.996Z,61.15112305
2022-08-23T07:44:04.443Z,60.44921875
2022-08-23T07:45:04.838Z,60.44921875
2022-08-23T07:46:05.300Z,60.44921875
2022-08-23T07:47:05.696Z,60.74829102
2022-08-23T07:48:06.964Z,60.15014648
2022-08-23T07:49:07.412Z,60.3515625
2022-08-23T07:50:07.824Z,60.3515625
2022-08-23T07:51:08.226Z,60.24780273
2022-08-23T07:52:12.082Z,60.3515625
2022-08-23T07:53:09.989Z,60.3515625
2022-08-23T07:54:10.486Z,60.22338867
2022-08-23T07:55:10.863Z,60.52246094
2022-08-23T07:56:41.390Z,60.91918945
2022-08-23T07:58:12.932Z,60.72387695
2022-08-23T07:59:13.382Z,60.62011719
2022-08-23T08:00:13.773Z,60.22338867
2022-08-23T08:01:14.207Z,60.41870117
2022-08-23T08:02:14.735Z,60.41870117
2022-08-23T08:03:15.116Z,60.41870117
2022-08-23T08:04:15.676Z,60.22338867
2022-08-23T08:05:20.986Z,59.59472656
2022-08-23T08:06:16.428Z,59.59472656
2022-08-23T08:07:20.545Z,59.59472656
2022-08-23T08:08:18.180Z,59.2956543
2022-08-23T08:09:18.691Z,58.99047852
2022-08-23T08:10:19.153Z,58.79516602
2022-08-23T08:11:20.092Z,58.48999023
2022-08-23T08:12:20.050Z,58.69140625
2022-08-23T08:13:20.498Z,59.09423828
2022-08-23T08:14:21.009Z,58.89282227
2022-08-23T08:15:21.370Z,58.89282227
2022-08-23T08:16:21.858Z,58.39233398
2022-08-23T08:17:27.281Z,57.79418945
2022-08-23T08:18:23.667Z,58.19091797
2022-08-23T08:19:24.209Z,58.69140625
2022-08-23T08:20:24.591Z,58.99047852
2022-08-23T08:21:25.029Z,58.39233398
2022-08-23T08:22:26.191Z,58.19091797
2022-08-23T08:23:26.654Z,58.29467773
2022-08-23T08:24:27.145Z,57.39135742
2022-08-23T08:25:27.555Z,57.59277344
2022-08-23T08:26:27.957Z,58.09326172
2022-08-23T08:27:29.207Z,57.86743164
2022-08-23T08:28:29.688Z,57.36694336
2022-08-23T08:29:30.153Z,56.56738281
2022-08-23T08:30:30.561Z,56.76879883
2022-08-23T08:31:31.042Z,56.76879883
2022-08-23T08:32:31.478Z,56.96411133
2022-08-23T08:33:34.300Z,57.16552734
2022-08-23T08:35:02.832Z,57.16552734
2022-08-23T08:36:05.107Z,56.86645508
2022-08-23T08:37:04.130Z,56.73828125
2022-08-23T08:38:05.453Z,56.93969727
2022-08-23T08:39:05.890Z,57.03735352
2022-08-23T08:40:06.444Z,57.33642578
2022-08-23T08:41:06.790Z,56.23779297
2022-08-23T08:42:07.247Z,55.84106445
2022-08-23T08:43:07.802Z,56.73828125
2022-08-23T08:44:08.246Z,56.93969727
2022-08-23T08:45:08.706Z,57.33642578
2022-08-23T08:46:09.127Z,56.43920898
2022-08-23T08:47:10.470Z,57.03735352
2022-08-23T08:48:13.497Z,56.93969727
2022-08-23T08:49:12.455Z,56.8359375
2022-08-23T08:50:12.919Z,56.8359375
2022-08-23T08:51:13.285Z,56.8359375
2022-08-23T08:52:13.731Z,56.73828125
2022-08-23T08:53:14.739Z,56.93969727
2022-08-23T08:54:15.181Z,56.73828125
2022-08-23T08:55:15.666Z,56.43920898
2022-08-23T08:56:16.520Z,56.90917969
2022-08-23T08:57:16.482Z,56.90917969
2022-08-23T08:58:17.961Z,57.20825195
2022-08-23T08:59:18.416Z,57.1105957
2022-08-23T09:00:18.977Z,56.90917969
2022-08-23T09:01:19.332Z,57.1105957
2022-08-23T09:02:31.905Z,56.51245117
2022-08-23T09:03:20.545Z,56.71386719
2022-08-23T09:04:20.708Z,56.81152344
2022-08-23T09:05:21.186Z,57.01293945
2022-08-23T09:06:21.569Z,56.51245117
2022-08-23T09:07:22.980Z,56.41479492
2022-08-23T09:08:23.446Z,56.78710938
2022-08-23T09:09:24.460Z,57.38525391
2022-08-23T09:10:24.915Z,56.28662109
2022-08-23T09:11:25.279Z,55.88378906
2022-08-23T09:12:25.683Z,55.78613281
2022-08-23T09:13:26.188Z,55.5847168
2022-08-23T09:14:26.672Z,56.18286133
2022-08-23T09:15:27.102Z,56.38427734
2022-08-23T09:16:28.823Z,56.18286133
2022-08-23T09:17:27.916Z,55.98754883
2022-08-23T09:18:28.970Z,56.08520508
2022-08-23T09:19:29.431Z,56.38427734
2022-08-23T09:20:32.678Z,57.28149414
2022-08-23T09:21:30.283Z,57.38525391
2022-08-23T09:22:30.741Z,57.48291016
2022-08-23T09:23:31.184Z,57.78198242
2022-08-23T09:25:02.152Z,57.78198242
2022-08-23T09:26:04.069Z,57.98339844
2022-08-23T09:27:03.852Z,57.38525391
2022-08-23T09:28:04.321Z,56.88476563
2022-08-23T09:29:05.691Z,56.08520508
2022-08-23T09:30:06.132Z,56.58569336
2022-08-23T09:31:08.221Z,56.45751953
2022-08-23T09:32:06.963Z,57.05566406
2022-08-23T09:33:07.441Z,57.75756836
2022-08-23T09:34:07.902Z,57.85522461
2022-08-23T09:35:08.358Z,57.25708008
2022-08-23T09:36:08.833Z,57.35473633
2022-08-23T09:37:09.841Z,57.05566406
2022-08-23T09:38:09.677Z,56.85424805
2022-08-23T09:39:10.706Z,56.06079102
2022-08-23T09:40:11.235Z,55.76171875
2022-08-23T09:41:11.893Z,55.859375
2022-08-23T09:42:12.266Z,55.76171875
2022-08-23T09:43:12.713Z,56.06079102
2022-08-23T09:44:13.169Z,56.65893555
2022-08-23T09:45:13.599Z,55.95703125
2022-08-23T09:46:14.163Z,56.25610352
2022-08-23T09:47:14.440Z,56.35986328
2022-08-23T09:48:14.961Z,56.43310547
2022-08-23T09:49:16.167Z,56.3293457
2022-08-23T09:50:16.637Z,56.82983398
2022-08-23T09:51:17.050Z,56.82983398
2022-08-23T09:52:22.034Z,55.83496094
2022-08-23T09:53:18.653Z,56.53076172
2022-08-23T09:54:19.224Z,56.43310547
2022-08-23T09:55:19.534Z,56.43310547
2022-08-23T09:56:19.982Z,56.73217773
2022-08-23T09:57:20.384Z,57.12890625
2022-08-23T09:58:20.971Z,57.03125
2022-08-23T09:59:22.192Z,57.2265625
2022-08-23T10:00:22.656Z,56.62841797
2022-08-23T10:01:23.155Z,56.50634766
2022-08-23T10:02:24.220Z,56.60400391
2022-08-23T10:03:24.738Z,57.5012207
2022-08-23T10:04:25.259Z,57.00073242
2022-08-23T10:05:25.606Z,56.40258789
2022-08-23T10:06:26.053Z,56.40258789
2022-08-23T10:07:26.468Z,56.60400391
2022-08-23T10:08:26.923Z,56.70166016
2022-08-23T10:09:28.179Z,56.30493164
2022-08-23T10:10:28.605Z,56.30493164
2022-08-23T10:11:29.152Z,56.20727539
2022-08-23T10:12:29.456Z,56.60400391
2022-08-23T10:13:29.916Z,56.60400391
2022-08-23T10:14:31.172Z,57.5012207
2022-08-23T10:15:35.982Z,57.80029297
2022-08-23T10:17:01.947Z,57.5012207
2022-08-23T10:18:02.622Z,57.10449219
2022-08-23T10:19:03.483Z,57.40356445
2022-08-23T10:20:03.919Z,57.27539063
2022-08-23T10:21:05.176Z,57.76977539
2022-08-23T10:22:05.640Z,57.37304688
2022-08-23T10:23:06.111Z,57.37304688
2022-08-23T10:24:06.609Z,57.76977539
2022-08-23T10:25:07.049Z,57.57446289
2022-08-23T10:26:07.508Z,57.07397461
2022-08-23T10:27:08.043Z,57.17163086
2022-08-23T10:28:08.331Z,56.97631836
2022-08-23T10:29:09.515Z,57.27539063
2022-08-23T10:30:09.927Z,56.94580078
2022-08-23T10:31:10.445Z,56.34765625
2022-08-23T10:32:10.856Z,56.15234375
2022-08-23T10:33:16.921Z,56.15234375
2022-08-23T10:34:12.640Z,56.84814453
2022-08-23T10:35:13.071Z,56.54907227
2022-08-23T10:36:13.514Z,56.15234375
2022-08-23T10:37:13.962Z,55.1574707
2022-08-23T10:38:14.363Z,55.55419922
2022-08-23T10:39:15.740Z,56.54907227
2022-08-23T10:40:16.776Z,56.54907227
2022-08-23T10:41:17.191Z,56.81762695
2022-08-23T10:42:17.673Z,56.32324219
2022-08-23T10:43:18.961Z,55.52978516
2022-08-23T10:44:19.450Z,56.02416992
2022-08-23T10:45:19.889Z,57.11669922
2022-08-23T10:46:20.422Z,56.92138672
2022-08-23T10:47:21.740Z,55.89599609
2022-08-23T10:48:22.199Z,55.00488281
2022-08-23T10:49:23.226Z,54.30908203
2022-08-23T10:50:23.672Z,54.30908203
2022-08-23T10:51:31.571Z,54.20532227
2022-08-23T10:52:25.219Z,54.01000977
2022-08-23T10:53:25.662Z,54.50439453
2022-08-23T10:54:26.824Z,53.90625
2022-08-23T10:55:26.547Z,52.31933594
2022-08-23T10:56:26.966Z,51.32446289
2022-08-23T10:57:27.408Z,51.42211914
2022-08-23T10:58:27.823Z,51.51977539
2022-08-23T10:59:28.249Z,50.40283203
2022-08-23T11:00:28.672Z,50.40283203
2022-08-23T11:01:29.121Z,50.00610352
2022-08-23T11:02:29.535Z,49.90844727
2022-08-23T11:03:29.918Z,50.30517578